createdAt,value
2022-08-09T00:01:55.008Z,5.38
2022-08-09T00:04:34.902Z,5.85
2022-08-09T00:07:07.699Z,6.65
2022-08-09T00:09:40.341Z,6.03
2022-08-09T00:12:09.682Z,6.32
2022-08-09T00:14:56.831Z,5.28
2022-08-09T00:18:10.695Z,6.17
2022-08-09T00:20:15.221Z,6.88
2022-08-09T00:22:44.876Z,6.23
2022-08-09T00:25:15.647Z,6.23
2022-08-09T00:27:51.766Z,5.35
2022-08-09T00:30:25.614Z,5.85
2022-08-09T00:32:55.149Z,6.97
2022-08-09T00:35:23.974Z,4.65
2022-08-09T00:37:52.532Z,5.60
2022-08-09T00:40:22.586Z,5.38
2022-08-09T00:44:19.184Z,11.07
2022-08-09T00:45:54.027Z,6.18
2022-08-09T00:48:22.997Z,6.10
2022-08-09T00:50:52.266Z,5.77
2022-08-09T00:53:24.292Z,5.80
2022-08-09T00:56:04.880Z,4.97
2022-08-09T00:58:39.074Z,5.43
2022-08-09T01:01:15.983Z,6.40
2022-08-09T01:03:52.698Z,6.23
2022-08-09T01:06:35.345Z,7.70
2022-08-09T01:09:36.783Z,6.43
2022-08-09T01:12:14.858Z,7.33
2022-08-09T01:14:54.359Z,8.47
2022-08-09T01:17:34.017Z,6.67
2022-08-09T01:20:06.076Z,6.17
2022-08-09T01:22:59.214Z,8.73
2022-08-09T01:25:53.807Z,6.70
2022-08-09T01:28:26.001Z,5.20
2022-08-09T01:30:59.876Z,5.90
2022-08-09T01:33:35.314Z,5.23
2022-08-09T01:36:08.619Z,6.37
2022-08-09T01:38:40.731Z,8.73
2022-08-09T01:41:17.926Z,8.83
2022-08-09T01:43:52.650Z,7.03
2022-08-09T01:46:26.644Z,5.70
2022-08-09T01:49:10.226Z,6.10
2022-08-09T01:51:44.705Z,5.80
2022-08-09T01:54:25.405Z,10.87
2022-08-09T01:56:57.921Z,5.40
2022-08-09T01:59:50.935Z,6.80
2022-08-09T02:02:23.279Z,5.63
2022-08-09T02:05:04.664Z,4.93
2022-08-09T02:08:39.996Z,7.40
2022-08-09T02:10:32.260Z,7.10
2022-08-09T02:13:04.782Z,6.70
2022-08-09T02:15:49.413Z,6.60
2022-08-09T02:18:23.594Z,7.47
2022-08-09T02:21:00.705Z,6.17
2022-08-09T02:23:39.784Z,5.87
2022-08-09T02:26:24.888Z,6.60
2022-08-09T02:29:00.115Z,5.57
2022-08-09T02:31:35.685Z,4.93
2022-08-09T02:34:40.119Z,5.33
2022-08-09T02:37:05.138Z,6.80
2022-08-09T02:39:42.530Z,6.23
2022-08-09T02:42:17.706Z,5.10
2022-08-09T02:44:50.644Z,5.90
2022-08-09T02:47:22.977Z,6.23
2022-08-09T02:50:01.255Z,5.63
2022-08-09T02:52:41.163Z,6.70
2022-08-09T02:55:20.166Z,7.00
2022-08-09T02:58:00.158Z,7.67
2022-08-09T03:00:57.731Z,7.87
2022-08-09T03:03:59.591Z,6.23
2022-08-09T03:06:21.422Z,6.67
2022-08-09T03:08:52.883Z,7.00
2022-08-09T03:12:04.258Z,6.53
2022-08-09T03:14:14.245Z,7.00
2022-08-09T03:16:48.245Z,5.10
2022-08-09T03:19:58.932Z,8.13
2022-08-09T03:22:12.253Z,6.30
2022-08-09T03:25:06.353Z,5.67
2022-08-09T03:27:52.811Z,5.90
2022-08-09T03:30:33.584Z,6.60
2022-08-09T03:33:17.255Z,8.30
2022-08-09T03:36:12.492Z,7.07
2022-08-09T03:38:42.810Z,5.47
2022-08-09T03:41:15.554Z,7.63
2022-08-09T03:43:51.894Z,6.00
2022-08-09T03:46:34.705Z,5.57
2022-08-09T03:49:08.074Z,6.30
2022-08-09T03:51:55.541Z,6.00
2022-08-09T03:54:31.253Z,6.17
2022-08-09T03:57:18.482Z,6.73
2022-08-09T03:59:54.797Z,5.30
2022-08-09T04:02:28.304Z,5.77
2022-08-09T04:05:00.719Z,8.60
2022-08-09T04:07:47.763Z,6.63
2022-08-09T04:10:29.444Z,6.27
2022-08-09T04:13:01.114Z,7.93
2022-08-09T04:16:18.154Z,7.17
2022-08-09T04:18:21.933Z,7.47
2022-08-09T04:20:51.338Z,6.07
2022-08-09T04:23:24.314Z,9.40
2022-08-09T04:25:56.130Z,6.20
2022-08-09T04:28:33.569Z,7.10
2022-08-09T04:31:07.980Z,6.60
2022-08-09T04:33:51.777Z,9.37
2022-08-09T04:36:27.550Z,5.83
2022-08-09T04:39:00.432Z,5.40
2022-08-09T04:41:33.111Z,6.13
2022-08-09T04:44:06.241Z,6.20
2022-08-09T04:46:59.866Z,8.73
2022-08-09T04:49:52.423Z,6.87
2022-08-09T04:52:26.082Z,7.77
2022-08-09T04:54:58.985Z,5.63
2022-08-09T04:57:54.115Z,7.43
2022-08-09T05:00:17.090Z,5.37
2022-08-09T05:02:48.736Z,6.77
2022-08-09T05:05:32.182Z,5.97
2022-08-09T05:08:13.947Z,5.90
2022-08-09T05:10:46.536Z,5.97
2022-08-09T05:13:15.318Z,6.83
2022-08-09T05:15:48.003Z,7.50
2022-08-09T05:18:50.798Z,5.30
2022-08-09T05:21:10.032Z,5.43
2022-08-09T05:23:56.851Z,5.73
2022-08-09T05:26:37.047Z,7.20
2022-08-09T05:29:22.233Z,5.97
2022-08-09T05:31:57.224Z,6.40
2022-08-09T05:34:30.868Z,6.05
2022-08-09T05:37:02.412Z,4.90
2022-08-09T05:39:36.334Z,4.72
2022-08-09T05:42:17.742Z,5.07
2022-08-09T05:44:52.203Z,7.43
2022-08-09T05:47:22.866Z,4.70
2022-08-09T05:50:25.157Z,4.35
2022-08-09T05:52:41.937Z,4.43
2022-08-09T05:55:20.439Z,4.90
2022-08-09T05:57:56.868Z,9.77
2022-08-09T06:00:28.889Z,5.65
2022-08-09T06:02:58.868Z,4.22
2022-08-09T06:05:30.676Z,5.55
2022-08-09T06:08:19.304Z,5.03
2022-08-09T06:10:52.836Z,8.05
2022-08-09T06:13:23.592Z,6.30
2022-08-09T06:15:53.196Z,4.60
2022-08-09T06:18:23.816Z,5.25
2022-08-09T06:20:57.956Z,4.60
2022-08-09T06:23:58.633Z,5.93
2022-08-09T06:26:22.436Z,3.45
2022-08-09T06:29:00.106Z,3.97
2022-08-09T06:31:40.364Z,3.63
2022-08-09T06:34:23.571Z,5.30
2022-08-09T06:36:59.264Z,4.88
2022-08-09T06:39:49.134Z,5.78
2022-08-09T06:42:19.676Z,4.70
2022-08-09T06:44:51.796Z,4.78
2022-08-09T06:47:23.610Z,3.85
2022-08-09T06:50:13.449Z,3.97
2022-08-09T06:52:46.880Z,3.78
2022-08-09T06:55:16.495Z,3.92
2022-08-09T06:58:02.956Z,4.40
2022-08-09T07:00:56.551Z,3.70
2022-08-09T07:03:27.795Z,5.00
2022-08-09T07:06:04.845Z,4.13
2022-08-09T07:08:37.289Z,3.20
2022-08-09T07:11:08.519Z,3.55
2022-08-09T07:13:45.369Z,4.25
2022-08-09T07:16:41.952Z,4.03
2022-08-09T07:19:18.606Z,3.72
2022-08-09T07:21:57.674Z,6.10
2022-08-09T07:24:32.406Z,4.13
2022-08-09T07:27:23.900Z,3.60
2022-08-09T07:29:57.050Z,3.63
2022-08-09T07:32:32.662Z,3.75
2022-08-09T07:35:10.778Z,3.92
2022-08-09T07:37:44.047Z,3.10
2022-08-09T07:40:17.597Z,4.82
2022-08-09T07:42:56.267Z,3.55
2022-08-09T07:45:38.169Z,4.22
2022-08-09T07:48:27.380Z,4.80
2022-08-09T07:51:09.729Z,3.28
2022-08-09T07:54:05.431Z,3.53
2022-08-09T07:56:38.892Z,3.58
2022-08-09T07:59:33.630Z,2.80
2022-08-09T08:02:07.116Z,3.55
2022-08-09T08:04:39.947Z,3.35
2022-08-09T08:07:14.897Z,2.63
2022-08-09T08:10:08.175Z,7.20
2022-08-09T08:12:43.271Z,2.63
2022-08-09T08:15:16.491Z,3.95
2022-08-09T08:17:53.884Z,2.75
2022-08-09T08:20:30.335Z,3.90
2022-08-09T08:23:17.134Z,5.22
2022-08-09T08:25:49.727Z,5.20
2022-08-09T08:28:31.799Z,5.45
2022-08-09T08:31:10.680Z,4.53
2022-08-09T08:33:52.877Z,3.33
2022-08-09T08:36:29.208Z,4.82
2022-08-09T08:38:59.695Z,3.95
2022-08-09T08:41:50.181Z,3.78
2022-08-09T08:44:27.175Z,3.95
2022-08-09T08:47:02.059Z,4.22
2022-08-09T08:49:46.309Z,2.90
2022-08-09T08:52:57.314Z,4.18
2022-08-09T08:55:10.009Z,6.45
2022-08-09T08:57:38.895Z,4.32
2022-08-09T09:00:16.839Z,4.45
2022-08-09T09:03:08.588Z,4.28
2022-08-09T09:05:59.140Z,4.20
2022-08-09T09:08:38.061Z,3.60
2022-08-09T09:11:17.624Z,7.35
2022-08-09T09:13:56.282Z,3.63
2022-08-09T09:16:32.272Z,6.55
2022-08-09T09:22:08.006Z,3.97
2022-08-09T09:24:43.997Z,4.82
2022-08-09T09:28:04.228Z,3.22
2022-08-09T09:30:33.064Z,3.08
2022-08-09T09:33:13.780Z,3.65
2022-08-09T09:36:02.517Z,3.92
2022-08-09T09:38:44.513Z,3.67
2022-08-09T09:41:33.444Z,3.88
2022-08-09T09:44:27.922Z,3.22
2022-08-09T09:47:09.112Z,3.13
2022-08-09T09:50:07.767Z,4.68
2022-08-09T09:52:35.844Z,2.78
2022-08-09T09:55:16.084Z,4.13
2022-08-09T09:58:16.734Z,4.32
2022-08-09T10:00:54.027Z,3.67
2022-08-09T10:03:56.171Z,2.47
2022-08-09T10:06:25.537Z,2.90
2022-08-09T10:09:02.917Z,3.15
2022-08-09T10:12:07.670Z,4.28
2022-08-09T10:14:33.890Z,4.88
2022-08-09T10:17:39.110Z,2.17
2022-08-09T10:20:01.075Z,3.53
2022-08-09T10:22:39.076Z,4.40
2022-08-09T10:25:11.979Z,4.70
2022-08-09T10:27:56.100Z,3.72
2022-08-09T10:34:07.934Z,3.13
2022-08-09T10:36:11.688Z,2.33
2022-08-09T10:38:56.384Z,3.72
2022-08-09T10:41:26.035Z,3.35
2022-08-09T10:43:59.197Z,4.43
2022-08-09T10:46:57.636Z,2.65
2022-08-09T10:49:49.826Z,3.53
2022-08-09T10:52:42.806Z,4.45
2022-08-09T10:55:25.013Z,4.03
2022-08-09T10:57:55.654Z,2.58
2022-08-09T11:00:41.705Z,4.30
2022-08-09T11:03:46.985Z,2.85
2022-08-09T11:06:26.184Z,3.03
2022-08-09T11:08:54.934Z,4.85
2022-08-09T11:12:10.672Z,3.80
2022-08-09T11:14:41.928Z,2.92
2022-08-09T11:17:53.670Z,5.03
2022-08-09T11:20:47.662Z,5.60
2022-08-09T11:23:24.216Z,3.60
2022-08-09T11:26:00.331Z,2.13
2022-08-09T11:28:56.136Z,3.15
2022-08-09T11:31:49.230Z,3.25
2022-08-09T11:34:32.128Z,3.58
2022-08-09T11:37:07.393Z,5.82
2022-08-09T11:40:04.914Z,4.50
2022-08-09T11:42:48.387Z,4.50
2022-08-09T11:45:42.617Z,2.55
2022-08-09T11:48:26.251Z,3.58
2022-08-09T11:51:38.125Z,2.70
2022-08-09T11:54:27.864Z,4.50
2022-08-09T11:57:59.849Z,3.17
2022-08-09T12:00:28.140Z,3.83
2022-08-09T12:02:57.962Z,2.97
2022-08-09T12:05:37.920Z,3.40
2022-08-09T12:08:12.365Z,4.40
2022-08-09T12:10:53.746Z,2.83
2022-08-09T12:14:09.755Z,2.70
2022-08-09T12:16:37.872Z,3.90
2022-08-09T12:19:09.633Z,2.58
2022-08-09T12:21:48.392Z,4.55
2022-08-09T12:24:23.792Z,2.33
2022-08-09T12:28:58.496Z,3.92
2022-08-09T12:30:01.810Z,4.07
2022-08-09T12:32:33.209Z,3.38
2022-08-09T12:35:04.755Z,2.53
2022-08-09T12:37:44.177Z,4.50
2022-08-09T12:40:18.986Z,3.05
2022-08-09T12:42:50.420Z,2.28
2022-08-09T12:45:32.508Z,2.25
2022-08-09T12:48:04.640Z,3.90
2022-08-09T12:50:33.479Z,3.40
2022-08-09T12:53:17.607Z,3.08
2022-08-09T12:56:14.375Z,3.22
2022-08-09T12:58:42.946Z,3.35
2022-08-09T13:01:28.263Z,3.35
2022-08-09T13:04:01.952Z,2.75
2022-08-09T13:06:34.205Z,2.53
2022-08-09T13:09:12.533Z,5.38
2022-08-09T13:11:45.323Z,2.38
2022-08-09T13:14:42.700Z,4.38
2022-08-09T13:17:44.323Z,2.72
2022-08-09T13:20:16.280Z,3.78
2022-08-09T13:23:02.047Z,2.42
2022-08-09T13:25:52.980Z,2.90
2022-08-09T13:28:33.744Z,2.30
2022-08-09T13:32:17.771Z,4.50
2022-08-09T13:33:57.745Z,2.65
2022-08-09T13:36:42.127Z,2.88
2022-08-09T13:41:19.327Z,3.05
2022-08-09T13:42:10.968Z,5.20
2022-08-09T13:44:43.559Z,2.35
2022-08-09T13:47:31.272Z,4.68
2022-08-09T13:50:03.263Z,3.85
2022-08-09T13:52:42.497Z,3.20
2022-08-09T13:55:13.739Z,3.40
2022-08-09T13:57:47.254Z,4.20
2022-08-09T14:00:28.408Z,2.42
2022-08-09T14:03:05.009Z,2.78
2022-08-09T14:05:59.974Z,2.03
2022-08-09T14:08:31.831Z,4.13
2022-08-09T14:11:01.342Z,2.28
2022-08-09T14:14:23.292Z,3.13
2022-08-09T14:16:28.436Z,2.95
2022-08-09T14:18:59.511Z,4.53
2022-08-09T14:21:29.539Z,2.70
2022-08-09T14:24:01.355Z,3.85
2022-08-09T14:26:39.590Z,2.00
2022-08-09T14:30:04.408Z,2.33
2022-08-09T14:32:10.957Z,3.53
2022-08-09T14:34:43.032Z,4.30
2022-08-09T14:37:12.491Z,3.38
2022-08-09T14:39:46.991Z,4.57
2022-08-09T14:42:38.954Z,3.60
2022-08-09T14:46:53.953Z,3.85
2022-08-09T14:48:00.235Z,3.05
2022-08-09T14:50:36.955Z,2.65
2022-08-09T14:53:11.446Z,3.17
2022-08-09T14:55:41.965Z,2.35
2022-08-09T14:58:11.093Z,2.75
2022-08-09T15:00:42.275Z,3.05
2022-08-09T15:03:11.345Z,3.28
2022-08-09T15:05:52.334Z,2.17
2022-08-09T15:08:30.319Z,4.25
2022-08-09T15:11:01.036Z,2.47
2022-08-09T15:13:56.645Z,4.07
2022-08-09T15:16:22.418Z,2.05
2022-08-09T15:18:52.453Z,2.88
2022-08-09T15:21:58.697Z,1.90
2022-08-09T15:24:19.078Z,1.42
2022-08-09T15:26:53.365Z,3.38
2022-08-09T15:30:59.835Z,5.47
2022-08-09T15:32:29.969Z,3.28
2022-08-09T15:35:01.014Z,3.30
2022-08-09T15:38:10.703Z,3.22
2022-08-09T15:40:32.253Z,1.85
2022-08-09T15:43:02.433Z,1.27
2022-08-09T15:45:31.279Z,2.13
2022-08-09T15:48:29.181Z,3.75
2022-08-09T15:50:59.620Z,1.50
2022-08-09T15:54:05.337Z,3.22
2022-08-09T15:56:21.499Z,2.40
2022-08-09T15:58:57.409Z,2.08
2022-08-09T16:01:26.444Z,2.58
2022-08-09T16:04:00.068Z,2.15
2022-08-09T16:06:35.635Z,3.00
2022-08-09T16:09:07.573Z,2.53
2022-08-09T16:11:35.973Z,1.85
2022-08-09T16:14:07.905Z,4.03
2022-08-09T16:16:37.846Z,1.92
2022-08-09T16:19:07.650Z,1.77
2022-08-09T16:21:36.448Z,3.58
2022-08-09T16:24:08.839Z,2.53
2022-08-09T16:26:56.786Z,2.63
2022-08-09T16:29:37.984Z,2.80
2022-08-09T16:32:33.610Z,2.90
2022-08-09T16:35:02.685Z,3.03
2022-08-09T16:37:54.755Z,2.80
2022-08-09T16:40:29.914Z,2.33
2022-08-09T16:43:08.861Z,5.32
2022-08-09T16:45:44.462Z,2.63
2022-08-09T16:48:41.702Z,2.30
2022-08-09T16:51:07.528Z,3.33
2022-08-09T16:53:43.812Z,4.63
2022-08-09T16:56:27.468Z,3.42
2022-08-09T16:58:59.487Z,4.45
2022-08-09T17:01:34.053Z,3.30
2022-08-09T17:04:05.493Z,2.38
2022-08-09T17:06:48.333Z,2.95
2022-08-09T17:09:45.655Z,5.25
2022-08-09T17:12:14.358Z,2.33
2022-08-09T17:14:47.638Z,4.15
2022-08-09T17:17:26.842Z,2.72
2022-08-09T17:20:28.415Z,1.45
2022-08-09T17:22:49.792Z,5.80
2022-08-09T17:25:22.218Z,5.57
2022-08-09T17:27:55.262Z,3.60
2022-08-09T17:30:26.512Z,6.03
2022-08-09T17:33:01.508Z,4.32
2022-08-09T17:35:41.072Z,3.55
2022-08-09T17:38:12.993Z,4.90
2022-08-09T17:40:53.193Z,3.22
2022-08-09T17:43:34.044Z,4.25
2022-08-09T17:46:07.594Z,3.13
2022-08-09T17:48:51.833Z,4.88
2022-08-09T17:51:22.361Z,4.75
2022-08-09T17:53:55.023Z,2.97
2022-08-09T17:56:29.226Z,3.90
2022-08-09T17:59:09.212Z,5.57
2022-08-09T18:02:03.458Z,5.28
2022-08-09T18:04:29.333Z,3.92
2022-08-09T18:06:58.932Z,5.50
2022-08-09T18:09:40.720Z,2.83
2022-08-09T18:12:17.884Z,3.50
2022-08-09T18:14:54.997Z,5.18
2022-08-09T18:18:03.805Z,4.72
2022-08-09T18:20:55.190Z,2.53
2022-08-09T18:23:07.285Z,4.15
2022-08-09T18:25:45.532Z,3.38
2022-08-09T18:30:34.623Z,4.25
2022-08-09T18:31:13.552Z,2.80
2022-08-09T18:33:44.225Z,3.95
2022-08-09T18:36:31.745Z,3.20
2022-08-09T18:39:05.881Z,4.13
2022-08-09T18:41:37.508Z,3.55
2022-08-09T18:44:13.123Z,5.47
2022-08-09T18:46:47.376Z,3.45
2022-08-09T18:49:42.930Z,3.15
2022-08-09T18:52:12.747Z,5.43
2022-08-09T18:54:49.780Z,3.72
2022-08-09T18:57:22.956Z,5.53
2022-08-09T18:59:56.555Z,4.57
2022-08-09T19:02:32.006Z,5.57
2022-08-09T19:05:14.237Z,4.22
2022-08-09T19:08:04.249Z,4.35
2022-08-09T19:10:39.221Z,5.15
2022-08-09T19:13:23.567Z,4.03
2022-08-09T19:15:59.916Z,4.32
2022-08-09T19:18:33.755Z,6.50
2022-08-09T19:21:05.612Z,5.40
2022-08-09T19:24:32.918Z,6.03
2022-08-09T19:26:31.714Z,5.78
2022-08-09T19:29:03.131Z,6.80
2022-08-09T19:31:45.122Z,5.18
2022-08-09T19:34:22.104Z,6.70
2022-08-09T19:36:52.659Z,6.60
2022-08-09T19:39:43.045Z,11.35
2022-08-09T19:42:14.932Z,8.82
2022-08-09T19:44:50.712Z,11.15
2022-08-09T19:47:23.355Z,7.20
2022-08-09T19:50:09.647Z,6.07
2022-08-09T19:52:51.827Z,10.30
2022-08-09T19:55:30.906Z,7.13
2022-08-09T19:58:16.127Z,5.03
2022-08-09T20:00:47.610Z,4.68
2022-08-09T20:04:17.067Z,5.07
2022-08-09T20:06:22.588Z,3.97
2022-08-09T20:08:56.677Z,3.80
2022-08-09T20:11:26.842Z,5.22
2022-08-09T20:13:55.942Z,5.22
2022-08-09T20:16:36.762Z,6.32
2022-08-09T20:19:49.081Z,8.82
2022-08-09T20:22:08.941Z,4.38
2022-08-09T20:24:40.716Z,4.30
2022-08-09T20:27:11.690Z,4.35
2022-08-09T20:29:43.104Z,4.63
2022-08-09T20:32:30.562Z,3.38
2022-08-09T20:35:02.392Z,6.30
2022-08-09T20:38:18.609Z,5.05
2022-08-09T20:40:26.922Z,4.03
2022-08-09T20:43:00.400Z,5.05
2022-08-09T20:46:01.767Z,3.72
2022-08-09T20:48:39.701Z,4.05
2022-08-09T20:51:19.121Z,4.47
2022-08-09T20:53:49.786Z,5.45
2022-08-09T20:56:21.879Z,5.43
2022-08-09T20:58:58.705Z,5.93
2022-08-09T21:01:34.887Z,3.47
2022-08-09T21:05:53.958Z,4.00
2022-08-09T21:07:12.254Z,4.95
2022-08-09T21:09:55.504Z,4.85
2022-08-09T21:15:15.432Z,5.00
2022-08-09T21:18:11.277Z,3.45
2022-08-09T21:20:35.791Z,3.83
2022-08-09T21:23:09.195Z,3.53
2022-08-09T21:25:59.765Z,5.30
2022-08-09T21:28:35.115Z,4.82
2022-08-09T21:31:17.766Z,5.78
2022-08-09T21:33:51.696Z,4.63
2022-08-09T21:36:27.922Z,3.38
2022-08-09T21:38:59.274Z,4.55
2022-08-09T21:42:04.871Z,4.95
2022-08-09T21:44:34.079Z,3.60
2022-08-09T21:47:07.945Z,4.47
2022-08-09T21:49:43.152Z,6.25
2022-08-09T21:52:18.159Z,6.80
2022-08-09T21:54:59.290Z,2.60
2022-08-09T21:57:38.438Z,3.35
2022-08-09T22:00:31.709Z,3.80
2022-08-09T22:03:05.668Z,4.80
2022-08-09T22:05:37.479Z,3.47
2022-08-09T22:08:13.667Z,2.88
2022-08-09T22:11:01.063Z,5.57
2022-08-09T22:13:36.966Z,5.40
2022-08-09T22:16:08.573Z,3.05
2022-08-09T22:18:53.306Z,3.35
2022-08-09T22:21:27.337Z,4.60
2022-08-09T22:24:17.000Z,3.60
2022-08-09T22:26:47.895Z,3.30
2022-08-09T22:29:28.429Z,3.72
2022-08-09T22:32:01.038Z,5.13
2022-08-09T22:34:29.863Z,5.00
2022-08-09T22:37:01.223Z,4.85
2022-08-09T22:39:56.329Z,4.20
2022-08-09T22:42:21.886Z,3.72
2022-08-09T22:45:00.510Z,3.55
2022-08-09T22:48:12.248Z,4.50
2022-08-09T22:50:34.858Z,3.60
2022-08-09T22:53:04.425Z,5.15
2022-08-09T22:56:06.124Z,3.40
2022-08-09T22:58:33.279Z,3.28
2022-08-09T23:01:06.203Z,2.75
2022-08-09T23:04:03.623Z,3.28
2022-08-09T23:06:34.772Z,3.97
2022-08-09T23:09:05.808Z,3.22
2022-08-09T23:11:34.379Z,5.13
2022-08-09T23:14:09.784Z,4.85
2022-08-09T23:16:43.189Z,3.47
2022-08-09T23:19:12.778Z,3.53
2022-08-09T23:21:43.569Z,3.38
2022-08-09T23:24:12.383Z,3.75
2022-08-09T23:26:41.498Z,3.28
2022-08-09T23:29:14.027Z,2.92
2022-08-09T23:31:44.087Z,4.55
2022-08-09T23:34:12.606Z,3.15
2022-08-09T23:36:42.626Z,3.05
2022-08-09T23:39:11.237Z,3.08
2022-08-09T23:41:40.338Z,5.75
2022-08-09T23:44:09.855Z,4.05
2022-08-09T23:46:38.338Z,4.55
2022-08-09T23:49:08.951Z,6.40
2022-08-09T23:51:37.703Z,9.20
2022-08-09T23:54:06.183Z,3.42
2022-08-09T23:56:52.028Z,4.18
2022-08-09T23:59:23.057Z,7.57
